Miami, Texas
Current Conditions -  °F | °C
As of 6:35 PM on Saturday 20 Dec 2014 (Local Time) from KHHF Reporting Station
Clear Clear  
Wind Chill: 39°   Ceiling: Unl
Heat Index: 43°   Visibility: 10mi
Dew Point: 37°   Wind: 6mph
Humidity: 80%   Direction: 170°S
Pressure: 30.04"   Gusts: NA
Location:  35.69°N, 100.64°W
Report Text: KHHF 210035Z AUTO 17005KT 10SM CLR 06/03 A3004 RMK AO2 T00600028
Loading
Personal Weather Stations






























Interactive Weather Map New forecast layout! Learn more

10-Day Weather Forecast

Advertisements
Track Severe Weather on mobile